Strona główna
METAR-TAF:

METAR-TAF

Lotnisko :

Platforma wiertnicza

J6-a, Holandia

Szerokość geograficzna: 53-49-27N, Długość geograficzna: 2-56-43E, wysokość: 34 m

Aktualna obserwacja pogody

Raport powstał 39 minut temu, godzina 03:55 UTC
Wiatr 14 kt od zachód
Temperatura 13°C
Wilgotność 88%
Ciśnienie 1021 hPa
Widzialność 10 km lub więcej

METAR: EHJA 150355Z AUTO 28014KT 9999 NCD 13/11 Q1021

czas: 06:34 (04:34 UTC)


TAF: brakujący

Obserwacja i prognoza pogody dla ponad 4000 lotnisk (raport METAR i TAF).

Dostępne stacje oznaczono żółtymi i czerwonymi punktami na mapie.

Najedź kursorem aby zobaczyć nazwę stacji.

Kliknij aby zobaczyć obserwacje i prognozy pogody.

Aby zmienić mapę: kliknij na zielony przycisk z czarnym krzyżykiem, aby powiększyć; na zielony przycisk z myślnikiem, aby pomniejszyć; na zielone strzałki, aby przejść do map sąsiednich.


METAR-TAF: